Carlsbad Caverns Natl Park, New Mexico
Current Conditions -  °F | °C
As of 8:53 AM on Thursday 30 Oct 2014 (Local Time) from KCNM Reporting Station
Clear Clear  
Wind Chill: 59°   Ceiling: Unl
Heat Index: 59°   Visibility: 10mi
Dew Point: 44°   Wind: 10mph
Humidity: 58%   Direction: 320°NW
Pressure: 30.19"   Gusts: NA
Location:  32.13°N, 104.58°W
Report Text: KCNM 301453Z AUTO 32009KT 10SM CLR 15/07 A3019 RMK AO2 SLP191 T01500067 53020
Loading
Personal Weather Stations






























Interactive Weather Map
Tropical Storm Tracking
New forecast layout! Learn more

10-Day Weather Forecast

Advertisements
Track Severe Weather on mobile